createdAt,value
2023-03-04T00:00:43.372Z,99.03
2023-03-04T00:03:11.110Z,99.05
2023-03-04T00:05:39.448Z,98.79
2023-03-04T00:08:07.295Z,98.83
2023-03-04T00:10:35.385Z,98.69
2023-03-04T00:13:22.698Z,98.62
2023-03-04T00:15:49.925Z,98.15
2023-03-04T00:18:21.500Z,98.38
2023-03-04T00:20:49.802Z,98.11
2023-03-04T00:23:17.085Z,98.41
2023-03-04T00:25:45.491Z,98.25
2023-03-04T00:28:14.589Z,98.40
2023-03-04T00:30:42.848Z,98.55
2023-03-04T00:33:10.425Z,98.18
2023-03-04T00:35:37.754Z,97.66
2023-03-04T00:38:05.385Z,97.23
2023-03-04T00:40:32.707Z,97.24
2023-03-04T00:43:00.618Z,97.79
2023-03-04T00:45:28.274Z,97.57
2023-03-04T00:47:58.431Z,98.07
2023-03-04T00:50:26.060Z,97.90
2023-03-04T00:52:53.308Z,97.70
2023-03-04T00:55:20.622Z,97.78
2023-03-04T00:57:48.239Z,98.36
2023-03-04T01:00:19.087Z,98.26
2023-03-04T01:02:46.674Z,98.31
2023-03-04T01:05:15.402Z,98.80
2023-03-04T01:07:42.701Z,98.90
2023-03-04T01:10:13.356Z,99.99
2023-03-04T01:12:41.793Z,99.56
2023-03-04T01:15:10.272Z,100.00
2023-03-04T01:17:43.539Z,100.00
2023-03-04T01:20:12.294Z,100.00
2023-03-04T01:22:39.725Z,100.00
2023-03-04T01:25:07.965Z,100.00
2023-03-04T01:27:35.655Z,100.00
2023-03-04T01:30:04.186Z,100.00
2023-03-04T01:32:32.700Z,100.00
2023-03-04T01:34:59.975Z,100.00
2023-03-04T01:37:27.303Z,100.00
2023-03-04T01:39:54.549Z,100.00
2023-03-04T01:42:22.704Z,100.00
2023-03-04T01:44:49.979Z,100.00
2023-03-04T01:47:18.934Z,100.00
2023-03-04T01:49:48.781Z,100.00
2023-03-04T01:52:16.092Z,100.00
2023-03-04T01:54:44.442Z,100.00
2023-03-04T01:57:25.667Z,100.00
2023-03-04T02:00:15.843Z,100.00
2023-03-04T02:02:43.134Z,100.00
2023-03-04T02:05:12.752Z,100.00
2023-03-04T02:07:40.326Z,100.00
2023-03-04T02:10:10.533Z,100.00
2023-03-04T02:12:38.539Z,100.00
2023-03-04T02:15:06.540Z,100.00
2023-03-04T02:17:35.228Z,100.00
2023-03-04T02:20:24.524Z,100.00
2023-03-04T02:23:12.032Z,100.00
2023-03-04T02:25:50.680Z,100.00
2023-03-04T02:28:17.985Z,100.00
2023-03-04T02:30:45.405Z,100.00
2023-03-04T02:33:17.486Z,100.00
2023-03-04T02:35:44.873Z,100.00
2023-03-04T02:38:12.319Z,100.00
2023-03-04T02:40:40.370Z,100.00
2023-03-04T02:43:10.207Z,100.00
2023-03-04T02:45:44.524Z,100.00
2023-03-04T02:48:12.922Z,100.00
2023-03-04T02:50:45.670Z,100.00
2023-03-04T02:53:13.026Z,100.00
2023-03-04T02:55:41.520Z,100.00
2023-03-04T02:58:08.804Z,100.00
2023-03-04T03:00:37.206Z,100.00
2023-03-04T03:03:04.952Z,100.00
2023-03-04T03:05:33.739Z,100.00
2023-03-04T03:08:01.062Z,100.00
2023-03-04T03:10:29.254Z,100.00
2023-03-04T03:12:56.539Z,100.00
2023-03-04T03:15:24.044Z,100.00
2023-03-04T03:17:54.255Z,100.00
2023-03-04T03:20:21.641Z,100.00
2023-03-04T03:22:48.849Z,100.00
2023-03-04T03:25:16.731Z,100.00
2023-03-04T03:27:44.191Z,100.00
2023-03-04T03:30:14.136Z,100.00
2023-03-04T03:32:41.434Z,100.00
2023-03-04T03:35:08.973Z,100.00
2023-03-04T03:37:36.497Z,100.00
2023-03-04T03:40:06.820Z,100.00
2023-03-04T03:42:34.501Z,100.00
2023-03-04T03:45:04.027Z,100.00
2023-03-04T03:47:31.540Z,100.00
2023-03-04T03:49:58.872Z,100.00
2023-03-04T03:52:27.182Z,100.00
2023-03-04T03:54:54.391Z,100.00
2023-03-04T03:57:22.829Z,100.00
2023-03-04T03:59:50.037Z,100.00
2023-03-04T04:02:17.475Z,100.00
2023-03-04T04:04:45.541Z,100.00
2023-03-04T04:07:12.747Z,100.00
2023-03-04T04:09:40.409Z,100.00
2023-03-04T04:12:07.960Z,100.00
2023-03-04T04:14:38.539Z,100.00
2023-03-04T04:17:06.557Z,100.00
2023-03-04T04:19:34.000Z,100.00
2023-03-04T04:22:01.678Z,100.00
2023-03-04T04:24:29.478Z,100.00
2023-03-04T04:27:00.520Z,100.00
2023-03-04T04:29:27.807Z,100.00
2023-03-04T04:31:55.106Z,100.00
2023-03-04T04:34:22.495Z,100.00
2023-03-04T04:36:49.674Z,100.00
2023-03-04T04:39:16.931Z,100.00
2023-03-04T04:41:44.558Z,100.00
2023-03-04T04:44:12.050Z,100.00
2023-03-04T04:46:39.429Z,100.00
2023-03-04T04:49:06.958Z,100.00
2023-03-04T04:51:36.892Z,100.00
2023-03-04T04:54:04.454Z,100.00
2023-03-04T04:56:34.184Z,100.00
2023-03-04T04:59:03.420Z,100.00
2023-03-04T05:01:30.900Z,100.00
2023-03-04T05:03:58.707Z,100.00
2023-03-04T05:06:26.026Z,100.00
2023-03-04T05:08:55.653Z,100.00
2023-03-04T05:11:23.283Z,100.00
2023-03-04T05:13:51.605Z,100.00
2023-03-04T05:16:19.463Z,100.00
2023-03-04T05:18:47.319Z,100.00
2023-03-04T05:21:16.440Z,100.00
2023-03-04T05:23:44.517Z,100.00
2023-03-04T05:26:14.303Z,100.00
2023-03-04T05:28:41.872Z,100.00
2023-03-04T05:31:09.511Z,100.00
2023-03-04T05:33:37.727Z,100.00
2023-03-04T05:36:05.666Z,100.00
2023-03-04T05:38:33.021Z,100.00
2023-03-04T05:41:02.868Z,100.00
2023-03-04T05:43:31.161Z,100.00
2023-03-04T05:45:58.378Z,100.00
2023-03-04T05:48:25.673Z,100.00
2023-03-04T05:50:56.827Z,100.00
2023-03-04T05:53:24.527Z,100.00
2023-03-04T05:55:52.721Z,100.00
2023-03-04T05:58:20.468Z,100.00
2023-03-04T06:00:50.325Z,100.00
2023-03-04T06:03:19.007Z,100.00
2023-03-04T06:05:46.715Z,100.00
2023-03-04T06:08:14.094Z,100.00
2023-03-04T06:10:41.702Z,100.00
2023-03-04T06:13:11.670Z,100.00
2023-03-04T06:15:39.737Z,100.00
2023-03-04T06:18:07.702Z,100.00
2023-03-04T06:20:38.067Z,100.00
2023-03-04T06:23:05.352Z,100.00
2023-03-04T06:25:32.590Z,100.00
2023-03-04T06:27:59.843Z,100.00
2023-03-04T06:30:27.467Z,100.00
2023-03-04T06:32:56.705Z,100.00
2023-03-04T06:35:23.994Z,100.00
2023-03-04T06:37:51.278Z,100.00
2023-03-04T06:40:20.333Z,100.00
2023-03-04T06:42:49.465Z,100.00
2023-03-04T06:45:18.879Z,100.00
2023-03-04T06:47:46.160Z,100.00
2023-03-04T06:50:13.545Z,100.00
2023-03-04T06:52:40.778Z,100.00
2023-03-04T06:55:08.556Z,100.00
2023-03-04T06:57:37.043Z,100.00
2023-03-04T07:00:04.668Z,100.00
2023-03-04T07:02:32.979Z,100.00
2023-03-04T07:05:00.235Z,100.00
2023-03-04T07:07:27.766Z,100.00
2023-03-04T07:09:54.954Z,99.68
2023-03-04T07:12:22.781Z,99.86
2023-03-04T07:14:50.049Z,99.38
2023-03-04T07:17:17.307Z,99.60
2023-03-04T07:19:44.758Z,98.71
2023-03-04T07:22:11.997Z,98.74
2023-03-04T07:24:39.967Z,98.42
2023-03-04T07:27:07.198Z,98.59
2023-03-04T07:29:34.690Z,95.64
2023-03-04T07:32:02.204Z,89.05
2023-03-04T07:34:29.902Z,79.77
2023-03-04T07:36:57.076Z,65.17
2023-03-04T07:39:28.799Z,56.51
2023-03-04T07:41:56.069Z,52.21
2023-03-04T07:44:23.367Z,53.72
2023-03-04T07:46:50.916Z,51.50
2023-03-04T07:49:18.156Z,48.70
2023-03-04T07:51:47.021Z,45.99
2023-03-04T07:54:14.490Z,44.31
2023-03-04T07:56:41.813Z,43.76
2023-03-04T07:59:09.013Z,45.24
2023-03-04T08:01:36.780Z,48.51
2023-03-04T08:04:05.134Z,53.21
2023-03-04T08:06:32.781Z,54.36
2023-03-04T08:09:06.493Z,50.83
2023-03-04T08:11:37.961Z,48.32
2023-03-04T08:14:05.520Z,49.92
2023-03-04T08:16:35.230Z,50.70
2023-03-04T08:19:03.521Z,48.37
2023-03-04T08:21:31.132Z,47.28
2023-03-04T08:24:01.667Z,45.41
2023-03-04T08:26:31.090Z,45.75
2023-03-04T08:28:58.620Z,43.48
2023-03-04T08:31:26.808Z,43.49
2023-03-04T08:33:55.843Z,44.33
2023-03-04T08:36:23.031Z,42.61
2023-03-04T08:38:50.992Z,42.84
2023-03-04T08:41:18.536Z,40.98
2023-03-04T08:43:45.815Z,39.63
2023-03-04T08:46:13.305Z,41.23
2023-03-04T08:48:40.556Z,39.89
2023-03-04T08:51:14.515Z,39.70
2023-03-04T08:53:41.757Z,41.08
2023-03-04T08:56:09.846Z,41.31
2023-03-04T08:58:38.646Z,41.47
2023-03-04T09:01:09.361Z,44.23
2023-03-04T09:03:45.991Z,43.58
2023-03-04T09:06:17.255Z,42.95
2023-03-04T09:08:45.075Z,42.96
2023-03-04T09:11:17.489Z,43.59
2023-03-04T09:13:46.294Z,43.04
2023-03-04T09:16:15.305Z,43.09
2023-03-04T09:18:42.779Z,43.13
2023-03-04T09:21:11.970Z,42.23
2023-03-04T09:23:40.246Z,44.07
2023-03-04T09:26:26.890Z,46.64
2023-03-04T09:28:58.412Z,47.31
2023-03-04T09:31:26.154Z,47.41
2023-03-04T09:33:55.147Z,44.43
2023-03-04T09:36:22.560Z,43.16
2023-03-04T09:38:50.667Z,44.46
2023-03-04T09:41:25.936Z,43.53
2023-03-04T09:43:53.399Z,44.01
2023-03-04T09:46:37.306Z,42.78
2023-03-04T09:49:07.296Z,42.51
2023-03-04T09:51:44.713Z,41.19
2023-03-04T09:54:47.449Z,40.46
2023-03-04T09:57:48.947Z,39.94
2023-03-04T10:00:31.112Z,39.09
2023-03-04T10:03:10.666Z,39.64
2023-03-04T10:05:49.957Z,39.07
2023-03-04T10:08:38.367Z,39.12
2023-03-04T10:11:16.041Z,39.55
2023-03-04T10:14:01.950Z,38.77
2023-03-04T10:16:36.612Z,37.66
2023-03-04T10:19:28.240Z,38.47
2023-03-04T10:21:55.298Z,39.74
2023-03-04T10:24:25.197Z,40.63
2023-03-04T10:26:53.820Z,39.02
2023-03-04T10:29:22.790Z,37.36
2023-03-04T10:31:50.504Z,36.90
2023-03-04T10:34:18.028Z,36.50
2023-03-04T10:37:01.980Z,36.34
2023-03-04T10:39:31.711Z,36.27
2023-03-04T10:42:02.825Z,38.81
2023-03-04T10:44:31.429Z,38.67
2023-03-04T10:46:58.888Z,38.38
2023-03-04T10:49:27.459Z,36.41
2023-03-04T10:52:01.938Z,35.90
2023-03-04T10:54:32.106Z,36.13
2023-03-04T10:57:01.613Z,36.32
2023-03-04T10:59:41.021Z,39.05
2023-03-04T11:02:24.165Z,40.88
2023-03-04T11:05:07.807Z,39.24
2023-03-04T11:08:02.381Z,39.29
2023-03-04T11:10:39.523Z,40.64
2023-03-04T11:13:11.348Z,40.76
2023-03-04T11:15:58.804Z,39.47
2023-03-04T11:18:38.898Z,39.00
2023-03-04T11:21:06.294Z,38.01
2023-03-04T11:23:44.219Z,37.74
2023-03-04T11:26:28.151Z,38.25
2023-03-04T11:29:07.375Z,38.44
2023-03-04T11:31:51.232Z,39.28
2023-03-04T11:34:31.152Z,40.12
2023-03-04T11:37:18.071Z,40.30
2023-03-04T11:40:14.431Z,39.62
2023-03-04T11:42:43.230Z,38.69
2023-03-04T11:45:28.469Z,39.31
2023-03-04T11:48:04.091Z,39.53
2023-03-04T11:50:49.918Z,39.24
2023-03-04T11:53:41.721Z,40.63
2023-03-04T11:56:38.202Z,40.50
2023-03-04T11:59:05.310Z,40.80
2023-03-04T12:01:32.663Z,40.08
2023-03-04T12:04:00.233Z,40.65
2023-03-04T12:07:09.371Z,41.15
2023-03-04T12:10:02.065Z,40.65
2023-03-04T12:13:04.032Z,40.59
2023-03-04T12:15:56.690Z,40.50
2023-03-04T12:18:36.047Z,40.84
2023-03-04T12:21:45.644Z,40.87
2023-03-04T12:24:39.688Z,41.00
2023-03-04T12:27:44.698Z,40.82
2023-03-04T12:30:33.503Z,40.52
2023-03-04T12:33:32.850Z,40.97
2023-03-04T12:36:32.935Z,41.48
2023-03-04T12:39:14.699Z,41.29
2023-03-04T12:41:52.254Z,41.19
2023-03-04T12:44:20.342Z,40.90
2023-03-04T12:47:25.111Z,40.67
2023-03-04T12:49:56.734Z,40.63
2023-03-04T12:52:36.877Z,41.13
2023-03-04T12:55:09.409Z,41.33
2023-03-04T12:57:36.700Z,41.22
2023-03-04T13:00:13.011Z,40.64
2023-03-04T13:03:17.812Z,41.14
2023-03-04T13:06:17.290Z,40.92
2023-03-04T13:09:01.825Z,41.87
2023-03-04T13:11:56.092Z,42.19
2023-03-04T13:14:25.660Z,41.43
2023-03-04T13:17:01.977Z,41.53
2023-03-04T13:20:08.194Z,41.29
2023-03-04T13:22:43.402Z,40.88
2023-03-04T13:25:42.952Z,40.74
2023-03-04T13:28:19.802Z,41.08
2023-03-04T13:30:59.325Z,41.01
2023-03-04T13:33:26.421Z,40.38
2023-03-04T13:36:04.336Z,40.55
2023-03-04T13:38:36.327Z,40.58
2023-03-04T13:41:41.136Z,41.38
2023-03-04T13:44:31.912Z,41.11
2023-03-04T13:46:59.161Z,41.05
2023-03-04T13:49:26.593Z,41.28
2023-03-04T13:51:54.017Z,40.99
2023-03-04T13:54:33.910Z,41.28
2023-03-04T13:57:01.023Z,41.77
2023-03-04T13:59:56.464Z,42.04
2023-03-04T14:02:26.009Z,41.75
2023-03-04T14:04:54.044Z,41.49
2023-03-04T14:07:34.106Z,41.43
2023-03-04T14:10:07.644Z,41.05
2023-03-04T14:12:43.808Z,41.37
2023-03-04T14:15:14.186Z,41.43
2023-03-04T14:17:47.402Z,41.40
2023-03-04T14:20:30.541Z,41.56
2023-03-04T14:22:59.283Z,42.00
2023-03-04T14:25:31.613Z,42.74
2023-03-04T14:28:07.010Z,43.35
2023-03-04T14:30:42.763Z,43.72
2023-03-04T14:33:19.647Z,44.59
2023-03-04T14:35:48.519Z,44.90
2023-03-04T14:38:19.358Z,44.88
2023-03-04T14:40:48.988Z,44.68
2023-03-04T14:43:18.684Z,44.65
2023-03-04T14:45:47.330Z,44.71
2023-03-04T14:48:35.206Z,44.65
2023-03-04T14:51:02.536Z,45.01
2023-03-04T14:53:31.043Z,45.11
2023-03-04T14:56:02.263Z,45.14
2023-03-04T14:58:37.207Z,45.77
2023-03-04T15:01:19.041Z,45.72
2023-03-04T15:04:00.683Z,45.98
2023-03-04T15:06:39.110Z,46.30
2023-03-04T15:09:08.927Z,46.30
2023-03-04T15:11:48.720Z,46.07
2023-03-04T15:14:43.029Z,46.48
2023-03-04T15:17:30.266Z,46.34
2023-03-04T15:20:18.977Z,46.74
2023-03-04T15:23:07.370Z,46.61
2023-03-04T15:25:34.727Z,47.02
2023-03-04T15:28:03.019Z,47.01
2023-03-04T15:30:34.305Z,47.15
2023-03-04T15:33:01.901Z,47.39
2023-03-04T15:35:30.995Z,47.61
2023-03-04T15:37:58.791Z,47.47
2023-03-04T15:40:29.437Z,47.68
2023-03-04T15:42:57.387Z,47.61
2023-03-04T15:45:31.107Z,47.83
2023-03-04T15:47:58.635Z,47.99
2023-03-04T15:50:29.911Z,48.23
2023-03-04T15:52:58.881Z,48.17
2023-03-04T15:55:33.482Z,48.52
2023-03-04T15:58:00.770Z,48.82
2023-03-04T16:00:28.067Z,48.92
2023-03-04T16:02:55.620Z,49.10
2023-03-04T16:05:22.956Z,49.33
2023-03-04T16:07:50.863Z,49.51
2023-03-04T16:10:26.795Z,49.31
2023-03-04T16:12:54.599Z,49.17
2023-03-04T16:15:29.564Z,49.16
2023-03-04T16:17:57.088Z,48.72
2023-03-04T16:20:25.882Z,48.76
2023-03-04T16:22:59.278Z,48.93
2023-03-04T16:25:26.668Z,49.75
2023-03-04T16:27:56.443Z,49.49
2023-03-04T16:30:25.479Z,49.76
2023-03-04T16:32:52.946Z,50.21
2023-03-04T16:35:20.329Z,50.70
2023-03-04T16:37:47.590Z,51.92
2023-03-04T16:40:16.443Z,52.49
2023-03-04T16:42:43.994Z,53.09
2023-03-04T16:45:37.925Z,54.24
2023-03-04T16:48:05.915Z,54.33
2023-03-04T16:50:33.592Z,54.85
2023-03-04T16:53:00.896Z,54.71
2023-03-04T16:55:28.958Z,55.37
2023-03-04T16:57:57.775Z,55.84
2023-03-04T17:00:25.896Z,56.22
2023-03-04T17:02:57.851Z,57.25
2023-03-04T17:05:27.945Z,57.74
2023-03-04T17:07:55.702Z,57.74
2023-03-04T17:10:23.785Z,58.08
2023-03-04T17:12:51.985Z,57.68
2023-03-04T17:15:20.910Z,57.57
2023-03-04T17:17:48.180Z,57.88
2023-03-04T17:20:17.060Z,58.01
2023-03-04T17:22:45.249Z,57.67
2023-03-04T17:25:12.646Z,56.93
2023-03-04T17:27:40.680Z,55.57
2023-03-04T17:30:11.383Z,56.94
2023-03-04T17:32:40.782Z,57.51
2023-03-04T17:35:09.075Z,57.53
2023-03-04T17:37:36.526Z,58.02
2023-03-04T17:40:05.181Z,58.86
2023-03-04T17:42:32.652Z,59.74
2023-03-04T17:45:00.146Z,60.93
2023-03-04T17:47:27.446Z,62.08
2023-03-04T17:49:54.640Z,62.76
2023-03-04T17:52:21.910Z,64.18
2023-03-04T17:54:49.305Z,64.26
2023-03-04T17:57:16.585Z,64.59
2023-03-04T17:59:44.388Z,65.81
2023-03-04T18:02:14.841Z,67.20
2023-03-04T18:04:45.157Z,68.68
2023-03-04T18:07:12.464Z,69.99
2023-03-04T18:09:40.141Z,71.57
2023-03-04T18:12:07.848Z,72.72
2023-03-04T18:14:38.200Z,73.83
2023-03-04T18:17:05.779Z,74.56
2023-03-04T18:19:33.071Z,74.99
2023-03-04T18:22:01.004Z,77.04
2023-03-04T18:24:28.557Z,77.93
2023-03-04T18:26:56.864Z,78.66
2023-03-04T18:29:24.183Z,79.56
2023-03-04T18:31:51.579Z,80.32
2023-03-04T18:34:19.511Z,81.39
2023-03-04T18:36:47.727Z,82.23
2023-03-04T18:39:17.511Z,82.80
2023-03-04T18:41:45.333Z,83.24
2023-03-04T18:44:12.565Z,83.91
2023-03-04T18:46:45.061Z,84.98
2023-03-04T18:49:12.545Z,85.99
2023-03-04T18:51:39.806Z,86.05
2023-03-04T18:54:07.320Z,86.83
2023-03-04T18:56:44.542Z,87.42
2023-03-04T18:59:23.317Z,87.95
2023-03-04T19:01:51.289Z,88.13
2023-03-04T19:04:18.690Z,88.56
2023-03-04T19:06:45.980Z,88.44
2023-03-04T19:09:13.305Z,88.78
2023-03-04T19:11:40.530Z,89.35
2023-03-04T19:14:08.072Z,89.86
2023-03-04T19:16:35.794Z,90.62
2023-03-04T19:19:03.232Z,90.73
2023-03-04T19:21:38.141Z,91.05
2023-03-04T19:24:06.564Z,91.66
2023-03-04T19:26:34.023Z,92.24
2023-03-04T19:29:01.408Z,92.28
2023-03-04T19:31:28.929Z,92.81
2023-03-04T19:33:56.391Z,93.35
2023-03-04T19:36:25.392Z,94.00
2023-03-04T19:38:53.242Z,94.68
2023-03-04T19:41:20.597Z,95.44
2023-03-04T19:43:51.800Z,95.79
2023-03-04T19:46:20.433Z,96.24
2023-03-04T19:48:50.230Z,96.80
2023-03-04T19:51:27.637Z,96.97
2023-03-04T19:53:55.155Z,97.52
2023-03-04T19:56:22.535Z,97.98
2023-03-04T19:58:50.550Z,98.43
2023-03-04T20:01:27.660Z,98.87
2023-03-04T20:03:59.369Z,98.87
2023-03-04T20:06:27.145Z,99.56
2023-03-04T20:08:57.139Z,99.64
2023-03-04T20:11:24.528Z,100.00
2023-03-04T20:13:58.697Z,100.00
2023-03-04T20:16:26.460Z,100.00
2023-03-04T20:18:54.353Z,100.00
2023-03-04T20:21:21.625Z,100.00
2023-03-04T20:23:48.980Z,100.00
2023-03-04T20:26:16.228Z,100.00
2023-03-04T20:28:43.536Z,100.00
2023-03-04T20:31:24.969Z,100.00
2023-03-04T20:33:54.078Z,100.00
2023-03-04T20:36:22.665Z,100.00
2023-03-04T20:38:55.849Z,100.00
2023-03-04T20:41:29.385Z,100.00
2023-03-04T20:44:02.567Z,100.00
2023-03-04T20:46:43.202Z,100.00
2023-03-04T20:49:23.526Z,100.00
2023-03-04T20:51:52.242Z,100.00
2023-03-04T20:54:20.019Z,100.00
2023-03-04T20:56:47.683Z,100.00
2023-03-04T20:59:14.978Z,100.00
2023-03-04T21:01:43.054Z,100.00
2023-03-04T21:04:10.758Z,100.00
2023-03-04T21:06:38.792Z,100.00
2023-03-04T21:09:11.597Z,100.00
2023-03-04T21:11:42.070Z,100.00
2023-03-04T21:14:16.290Z,100.00
2023-03-04T21:16:44.400Z,100.00
2023-03-04T21:19:16.956Z,100.00
2023-03-04T21:21:47.813Z,100.00
2023-03-04T21:24:17.294Z,100.00
2023-03-04T21:26:45.468Z,100.00
2023-03-04T21:29:17.174Z,100.00
2023-03-04T21:31:46.493Z,100.00
2023-03-04T21:34:36.529Z,100.00
2023-03-04T21:37:04.146Z,100.00
2023-03-04T21:39:32.782Z,100.00
2023-03-04T21:42:00.181Z,100.00
2023-03-04T21:44:45.147Z,100.00
2023-03-04T21:47:15.905Z,100.00
2023-03-04T21:49:43.338Z,100.00
2023-03-04T21:52:10.601Z,100.00
2023-03-04T21:54:37.910Z,100.00
2023-03-04T21:57:11.732Z,100.00
2023-03-04T21:59:39.145Z,100.00
2023-03-04T22:02:07.504Z,100.00
2023-03-04T22:04:35.554Z,100.00
2023-03-04T22:07:02.823Z,100.00
2023-03-04T22:09:34.939Z,100.00
2023-03-04T22:12:02.170Z,100.00
2023-03-04T22:14:29.693Z,100.00
2023-03-04T22:16:58.251Z,100.00
2023-03-04T22:19:27.763Z,100.00
2023-03-04T22:21:56.176Z,100.00
2023-03-04T22:24:23.936Z,100.00
2023-03-04T22:26:51.444Z,100.00
2023-03-04T22:29:18.691Z,100.00
2023-03-04T22:31:46.075Z,100.00
2023-03-04T22:34:19.844Z,100.00
2023-03-04T22:36:47.263Z,100.00
2023-03-04T22:39:16.265Z,100.00
2023-03-04T22:41:43.748Z,100.00
2023-03-04T22:44:11.311Z,100.00
2023-03-04T22:46:38.709Z,100.00
2023-03-04T22:49:10.794Z,100.00
2023-03-04T22:51:41.092Z,100.00
2023-03-04T22:54:10.768Z,100.00
2023-03-04T22:56:39.228Z,100.00
2023-03-04T22:59:06.573Z,100.00
2023-03-04T23:01:36.476Z,100.00
2023-03-04T23:04:04.678Z,100.00
2023-03-04T23:06:32.698Z,100.00
2023-03-04T23:09:05.585Z,100.00
2023-03-04T23:11:35.392Z,100.00
2023-03-04T23:14:06.446Z,100.00
2023-03-04T23:16:37.449Z,100.00
2023-03-04T23:19:05.708Z,100.00
2023-03-04T23:21:33.999Z,100.00
2023-03-04T23:24:02.539Z,100.00
2023-03-04T23:26:35.045Z,100.00
2023-03-04T23:29:04.068Z,100.00
2023-03-04T23:31:32.121Z,100.00
2023-03-04T23:33:59.682Z,100.00
2023-03-04T23:36:28.750Z,100.00
2023-03-04T23:38:56.054Z,100.00
2023-03-04T23:41:24.991Z,100.00
2023-03-04T23:43:52.920Z,100.00
2023-03-04T23:46:20.333Z,100.00
2023-03-04T23:48:48.020Z,100.00
2023-03-04T23:51:23.684Z,100.00
2023-03-04T23:53:51.001Z,100.00
2023-03-04T23:56:20.604Z,100.00
2023-03-04T23:58:48.233Z,100.00
